This is the latest recevied weather packets stored in our database for station/object G8SIB-9. If no packets are shown the sender has not sent any weather packets the latest 10 day(s).
| Time | Temp. | Humidity | Pressure | Rain* | Wind** | Luminosity | Snow |
|---|---|---|---|---|---|---|---|
| 1777803710 | 20° C | 54% | 1006.2 hPa | 0 mm | - | - | - |
| 1777803109 | 19.44° C | 56% | 1006.3 hPa | 0 mm | - | - | - |
| 1777802508 | 20° C | 55% | 1006.3 hPa | 0 mm | - | - | - |
| 1777801907 | 19.44° C | 58% | 1006.3 hPa | 0 mm | - | - | - |
| 1777801306 | 20° C | 55% | 1006.2 hPa | 0 mm | - | - | - |
| 1777800706 | 18.89° C | 57% | 1006.2 hPa | 0 mm | - | - | - |
| 1777800105 | 18.33° C | 58% | 1006.2 hPa | 0 mm | - | - | - |
| 1777799505 | 19.44° C | 58% | 1006.3 hPa | 0 mm | - | - | - |
| 1777798904 | 18.33° C | 58% | 1006.2 hPa | 0 mm | - | - | - |
| 1777798304 | 19.44° C | 57% | 1006.1 hPa | 0 mm | - | - | - |
| 1777797704 | 18.89° C | 59% | 1006.2 hPa | 0 mm | - | - | - |
| 1777797102 | 18.33° C | 62% | 1006.1 hPa | 0 mm | - | - | - |
| 1777796501 | 17.78° C | 63% | 1006.1 hPa | 0 mm | - | - | - |
| 1777795900 | 16.67° C | 70% | 1006.2 hPa | 0 mm | - | - | - |
| 1777795300 | 15.56° C | 74% | 1006.3 hPa | 0 mm | - | - | - |
| 1777794699 | 15.56° C | 75% | 1006.3 hPa | 0 mm | - | - | - |
| 1777794098 | 15.56° C | 77% | 1006.2 hPa | 0 mm | - | - | - |
| 1777793498 | 15° C | 78% | 1006.1 hPa | 0 mm | - | - | - |
| 1777792897 | 15° C | 78% | 1006.1 hPa | 0 mm | - | - | - |
| 1777792296 | 14.44° C | 80% | 1006.1 hPa | 0 mm | - | - | - |
| 1777791696 | 14.44° C | 79% | 1006.2 hPa | 0 mm | - | - | - |
| 1777791095 | 14.44° C | 80% | 1006.2 hPa | 0 mm | - | - | - |
| 1777790495 | 14.44° C | 82% | 1006.1 hPa | 0 mm | - | - | - |
| 1777789894 | 13.33° C | 86% | 1006.2 hPa | 0 mm | - | - | - |
| 1777789293 | 13.33° C | 88% | 1006.1 hPa | 0 mm | - | - | - |
* Rain latest hour (hover to see other rain measurements)
** Current wind speed in m/s (hover to see current wind gust speed)